Briefing drone pour Saint-apollinaire

Rechercher une autre localisation

Conditions de vol :


Nous sommes le : Jeudi 20 janvier 2022
Il est 05:55 UTC (06:55 LT)

Lever de soleil : 06:52 UTC (07:52 LT)
Coucher de soleil : 16:49 UTC (17:49 LT)

Météo

L'essentiel des conditions de vol

VIGILANCE MÉTÉO FRANCE - Côte-dOr (21)
Vigilance Jaune : Neige-verglas
CARTE TEMSI
CARTES DES FRONTS
METAR de LFSD
LFSD 200530Z AUTO VRB02KT 7000 FEW004 OVC011 02/02 Q1028

Date d'émission: 20/01/2022
Heure d'émission: 05:30 UTC
Vent: Variable 2 KT (4 km/h)
Visibilité horizontale: 7000 m
Plafond :
- Peu de nuages à 400ft (122m)
- Couvert à 1100ft (335m)
Température: 2 °C
Point de rosée: 2 °C
Humidité: 100%
Pression (QNH): 1028 hPa
TAF de LFSD
LFSD 010600Z 0100/0124 CNL

Conditions prévues :

Heure d'émission : Bulletin éffectué le 01 à 00:00 UTC
Prévision : Valide du 01 a 00:00 UTC au 01 a 23:59 UTC
Nuages : à 0ft (0 m)
WEBCAM POUR SAINT-APOLLINAIRE

Réglementation

Voler en sécurité

CARTES AERONAUTIQUE 1/500.000
CARTES VAC (LFSD)
SUP AIP




Chargement des AIP...
NOTAM (SAINT-APOLLINAIRE + Terrain à proximité / FIR )




Chargement des NOTAMS...
CONTACT PREFECTURE 21
Côte-dOr (21) : pref-drone@cote-dor.gouv.fr


Avertissement : Les données mises à disposition sont indicatives. Oxygène Drone ne pourra être tenu responsable de dégâts causés aux biens et aux personnes.